createdAt,value
2019-04-16T00:00:05.560Z,1018.58
2019-04-16T00:01:06.810Z,1018.61
2019-04-16T00:02:08.187Z,1018.60
2019-04-16T00:03:09.580Z,1018.60
2019-04-16T00:04:10.966Z,1018.58
2019-04-16T00:05:12.341Z,1018.59
2019-04-16T00:06:13.719Z,1018.54
2019-04-16T00:07:15.098Z,1018.53
2019-04-16T00:08:27.421Z,1018.56
2019-04-16T00:09:17.824Z,1018.56
2019-04-16T00:10:19.207Z,1018.59
2019-04-16T00:11:20.595Z,1018.54
2019-04-16T00:12:21.984Z,1018.54
2019-04-16T00:13:23.361Z,1018.52
2019-04-16T00:14:24.748Z,1018.44
2019-04-16T00:15:26.141Z,1018.46
2019-04-16T00:16:27.508Z,1018.43
2019-04-16T00:17:28.892Z,1018.45
2019-04-16T00:18:30.268Z,1018.43
2019-04-16T00:19:34.675Z,1018.42
2019-04-16T00:20:36.759Z,1018.42
2019-04-16T00:21:34.342Z,1018.39
2019-04-16T00:22:35.741Z,1018.39
2019-04-16T00:23:37.130Z,1018.35
2019-04-16T00:24:38.519Z,1018.35
2019-04-16T00:25:39.906Z,1018.34
2019-04-16T00:26:41.297Z,1018.33
2019-04-16T00:27:42.692Z,1018.29
2019-04-16T00:28:44.082Z,1018.28
2019-04-16T00:29:45.474Z,1018.28
2019-04-16T00:30:46.846Z,1018.29
2019-04-16T00:31:48.227Z,1018.27
2019-04-16T00:32:49.605Z,1018.23
2019-04-16T00:33:50.992Z,1018.20
2019-04-16T00:34:52.373Z,1018.23
2019-04-16T00:35:53.751Z,1018.16
2019-04-16T00:36:55.132Z,1018.17
2019-04-16T00:37:56.525Z,1018.16
2019-04-16T00:38:57.903Z,1018.13
2019-04-16T00:39:59.366Z,1018.15
2019-04-16T00:41:01.357Z,1018.16
2019-04-16T00:42:01.972Z,1018.15
2019-04-16T00:43:03.356Z,1018.17
2019-04-16T00:44:04.742Z,1018.13
2019-04-16T00:45:06.122Z,1018.12
2019-04-16T00:46:08.267Z,1018.15
2019-04-16T00:47:08.856Z,1018.09
2019-04-16T00:48:10.240Z,1018.09
2019-04-16T00:49:11.626Z,1018.03
2019-04-16T00:50:13.006Z,1018.09
2019-04-16T00:51:14.386Z,1018.08
2019-04-16T00:52:15.775Z,1018.09
2019-04-16T00:53:17.150Z,1018.07
2019-04-16T00:54:18.530Z,1018.04
2019-04-16T00:55:19.916Z,1018.07
2019-04-16T00:56:21.298Z,1018.08
2019-04-16T00:57:22.698Z,1018.12
2019-04-16T00:58:24.072Z,1018.06
2019-04-16T00:59:25.467Z,1018.02
2019-04-16T01:00:27.644Z,1018.04
2019-04-16T01:01:28.185Z,1018.00
2019-04-16T01:02:29.571Z,1017.97
2019-04-16T01:03:30.961Z,1017.98
2019-04-16T01:04:32.343Z,1017.98
2019-04-16T01:05:35.244Z,1017.98
2019-04-16T01:06:35.085Z,1017.92
2019-04-16T01:07:36.461Z,1017.96
2019-04-16T01:08:37.853Z,1017.98
2019-04-16T01:09:39.229Z,1018.04
2019-04-16T01:10:40.613Z,1018.01
2019-04-16T01:11:41.992Z,1017.98
2019-04-16T01:12:43.377Z,1017.98
2019-04-16T01:13:44.757Z,1017.95
2019-04-16T01:14:46.165Z,1017.94
2019-04-16T01:15:47.522Z,1017.92
2019-04-16T01:16:48.904Z,1017.91
2019-04-16T01:17:50.293Z,1017.99
2019-04-16T01:18:51.675Z,1017.92
2019-04-16T01:19:53.063Z,1017.93
2019-04-16T01:20:55.449Z,1017.97
2019-04-16T01:21:56.808Z,1017.94
2019-04-16T01:22:58.185Z,1017.98
2019-04-16T01:23:59.568Z,1017.95
2019-04-16T01:25:00.962Z,1017.92
2019-04-16T01:26:02.346Z,1017.91
2019-04-16T01:27:03.735Z,1017.93
2019-04-16T01:28:05.116Z,1017.95
2019-04-16T01:29:06.488Z,1017.91
2019-04-16T01:30:07.889Z,1017.94
2019-04-16T01:31:09.251Z,1017.88
2019-04-16T01:32:11.668Z,1017.93
2019-04-16T01:33:14.433Z,1017.90
2019-04-16T01:34:15.324Z,1017.91
2019-04-16T01:35:18.646Z,1017.86
2019-04-16T01:36:16.003Z,1017.90
2019-04-16T01:37:17.388Z,1017.91
2019-04-16T01:38:18.771Z,1017.87
2019-04-16T01:39:20.159Z,1017.90
2019-04-16T01:40:21.543Z,1017.90
2019-04-16T01:41:22.931Z,1017.94
2019-04-16T01:42:24.320Z,1017.95
2019-04-16T01:43:26.395Z,1017.92
2019-04-16T01:44:29.497Z,1017.93
2019-04-16T01:45:29.802Z,1017.93
2019-04-16T01:46:32.541Z,1017.93
2019-04-16T01:47:33.411Z,1017.93
2019-04-16T01:48:32.428Z,1017.90
2019-04-16T01:49:33.812Z,1017.94
2019-04-16T01:50:35.186Z,1017.93
2019-04-16T01:51:37.733Z,1017.93
2019-04-16T01:52:37.914Z,1017.94
2019-04-16T01:53:39.292Z,1017.91
2019-04-16T01:54:40.679Z,1017.92
2019-04-16T01:55:42.585Z,1017.89
2019-04-16T01:56:43.411Z,1017.99
2019-04-16T01:57:44.799Z,1017.90
2019-04-16T01:58:46.182Z,1017.93
2019-04-16T01:59:47.559Z,1017.95
2019-04-16T02:00:48.945Z,1017.92
2019-04-16T02:01:50.346Z,1017.94
2019-04-16T02:02:51.701Z,1017.89
2019-04-16T02:03:53.083Z,1017.91
2019-04-16T02:04:54.465Z,1017.91
2019-04-16T02:05:55.866Z,1017.90
2019-04-16T02:06:57.831Z,1017.88
2019-04-16T02:07:59.211Z,1017.93
2019-04-16T02:09:02.947Z,1017.91
2019-04-16T02:10:05.792Z,1017.92
2019-04-16T02:11:02.635Z,1017.92
2019-04-16T02:12:04.019Z,1017.93
2019-04-16T02:13:05.402Z,1017.90
2019-04-16T02:14:06.877Z,1017.91
2019-04-16T02:15:08.128Z,1017.92
2019-04-16T02:16:09.505Z,1017.90
2019-04-16T02:17:10.892Z,1017.92
2019-04-16T02:18:12.428Z,1017.91
2019-04-16T02:19:13.618Z,1017.91
2019-04-16T02:20:14.998Z,1017.94
2019-04-16T02:21:16.373Z,1017.85
2019-04-16T02:22:17.755Z,1017.88
2019-04-16T02:23:19.137Z,1017.85
2019-04-16T02:24:20.522Z,1017.92
2019-04-16T02:25:21.897Z,1017.88
2019-04-16T02:26:24.139Z,1017.91
2019-04-16T02:27:26.236Z,1017.92
2019-04-16T02:28:28.180Z,1017.92
2019-04-16T02:29:29.771Z,1017.91
2019-04-16T02:30:28.650Z,1017.94
2019-04-16T02:31:30.023Z,1017.89
2019-04-16T02:32:31.408Z,1017.92
2019-04-16T02:33:32.800Z,1017.89
2019-04-16T02:34:34.167Z,1017.91
2019-04-16T02:35:35.593Z,1017.89
2019-04-16T02:36:36.934Z,1017.88
2019-04-16T02:37:38.332Z,1017.93
2019-04-16T02:38:46.436Z,1017.89
2019-04-16T02:39:49.251Z,1017.90
2019-04-16T02:40:42.577Z,1017.88
2019-04-16T02:41:43.961Z,1017.90
2019-04-16T02:42:45.352Z,1017.88
2019-04-16T02:43:46.731Z,1017.87
2019-04-16T02:44:49.851Z,1017.91
2019-04-16T02:45:49.446Z,1017.85
2019-04-16T02:46:50.827Z,1017.88
2019-04-16T02:47:52.206Z,1017.85
2019-04-16T02:48:53.591Z,1017.86
2019-04-16T02:49:56.799Z,1017.86
2019-04-16T02:50:56.314Z,1017.86
2019-04-16T02:51:57.702Z,1017.85
2019-04-16T02:52:59.072Z,1017.82
2019-04-16T02:54:00.454Z,1017.81
2019-04-16T02:55:07.668Z,1017.81
2019-04-16T02:56:03.222Z,1017.86
2019-04-16T02:57:04.621Z,1017.82
2019-04-16T02:58:05.901Z,1017.80
2019-04-16T02:59:11.756Z,1017.81
2019-04-16T03:00:08.632Z,1017.78
2019-04-16T03:01:10.009Z,1017.80
2019-04-16T03:02:11.391Z,1017.77
2019-04-16T03:03:12.785Z,1017.77
2019-04-16T03:04:14.165Z,1017.81
2019-04-16T03:05:15.549Z,1017.76
2019-04-16T03:06:16.934Z,1017.78
2019-04-16T03:07:18.311Z,1017.77
2019-04-16T03:08:19.689Z,1017.75
2019-04-16T03:09:21.072Z,1017.78
2019-04-16T03:10:22.456Z,1017.76
2019-04-16T03:11:23.828Z,1017.78
2019-04-16T03:12:25.222Z,1017.79
2019-04-16T03:13:26.604Z,1017.76
2019-04-16T03:14:29.982Z,1017.77
2019-04-16T03:15:30.283Z,1017.79
2019-04-16T03:16:30.674Z,1017.78
2019-04-16T03:17:32.067Z,1017.78
2019-04-16T03:18:33.453Z,1017.73
2019-04-16T03:19:34.830Z,1017.73
2019-04-16T03:20:36.215Z,1017.76
2019-04-16T03:21:37.594Z,1017.75
2019-04-16T03:22:38.974Z,1017.71
2019-04-16T03:23:40.351Z,1017.75
2019-04-16T03:24:41.745Z,1017.72
2019-04-16T03:25:44.409Z,1017.72
2019-04-16T03:26:44.520Z,1017.67
2019-04-16T03:27:45.807Z,1017.66
2019-04-16T03:28:47.195Z,1017.64
2019-04-16T03:29:48.579Z,1017.63
2019-04-16T03:30:49.958Z,1017.65
2019-04-16T03:31:57.689Z,1017.62
2019-04-16T03:32:52.693Z,1017.59
2019-04-16T03:33:54.065Z,1017.62
2019-04-16T03:34:55.457Z,1017.63
2019-04-16T03:35:57.789Z,1017.62
2019-04-16T03:36:58.613Z,1017.62
2019-04-16T03:38:01.653Z,1017.60
2019-04-16T03:39:00.864Z,1017.63
2019-04-16T03:40:15.161Z,1017.61
2019-04-16T03:41:03.590Z,1017.61
2019-04-16T03:42:04.968Z,1017.61
2019-04-16T03:43:06.364Z,1017.62
2019-04-16T03:44:07.863Z,1017.60
2019-04-16T03:45:09.802Z,1017.62
2019-04-16T03:46:12.787Z,1017.60
2019-04-16T03:47:11.794Z,1017.64
2019-04-16T03:48:13.312Z,1017.61
2019-04-16T03:49:14.528Z,1017.62
2019-04-16T03:50:15.901Z,1017.60
2019-04-16T03:51:17.284Z,1017.59
2019-04-16T03:52:18.667Z,1017.60
2019-04-16T03:53:20.061Z,1017.62
2019-04-16T03:54:22.351Z,1017.62
2019-04-16T03:55:25.642Z,1017.63
2019-04-16T03:56:24.142Z,1017.61
2019-04-16T03:57:25.525Z,1017.62
2019-04-16T03:58:26.902Z,1017.66
2019-04-16T03:59:28.291Z,1017.62
2019-04-16T04:00:29.673Z,1017.65
2019-04-16T04:01:31.065Z,1017.64
2019-04-16T04:02:32.465Z,1017.62
2019-04-16T04:03:33.847Z,1017.62
2019-04-16T04:04:35.237Z,1017.57
2019-04-16T04:05:36.623Z,1017.60
2019-04-16T04:06:39.658Z,1017.62
2019-04-16T04:07:43.907Z,1017.58
2019-04-16T04:08:40.688Z,1017.58
2019-04-16T04:09:42.082Z,1017.60
2019-04-16T04:10:43.496Z,1017.64
2019-04-16T04:11:44.878Z,1017.62
2019-04-16T04:12:46.604Z,1017.62
2019-04-16T04:13:50.035Z,1017.63
2019-04-16T04:14:51.270Z,1017.60
2019-04-16T04:15:50.315Z,1017.58
2019-04-16T04:16:51.704Z,1017.57
2019-04-16T04:17:53.084Z,1017.57
2019-04-16T04:18:54.477Z,1017.54
2019-04-16T04:19:55.863Z,1017.61
2019-04-16T04:20:57.245Z,1017.62
2019-04-16T04:21:58.635Z,1017.61
2019-04-16T04:23:00.025Z,1017.60
2019-04-16T04:24:01.404Z,1017.62
2019-04-16T04:25:04.376Z,1017.59
2019-04-16T04:26:05.474Z,1017.65
2019-04-16T04:27:05.482Z,1017.65
2019-04-16T04:28:06.873Z,1017.64
2019-04-16T04:29:08.263Z,1017.62
2019-04-16T04:30:09.821Z,1017.67
2019-04-16T04:31:11.022Z,1017.64
2019-04-16T04:32:12.376Z,1017.62
2019-04-16T04:33:13.766Z,1017.67
2019-04-16T04:34:16.991Z,1017.70
2019-04-16T04:35:20.196Z,1017.60
2019-04-16T04:36:19.594Z,1017.66
2019-04-16T04:37:19.255Z,1017.66
2019-04-16T04:38:20.634Z,1017.63
2019-04-16T04:39:22.022Z,1017.65
2019-04-16T04:40:23.414Z,1017.69
2019-04-16T04:41:24.800Z,1017.70
2019-04-16T04:42:28.248Z,1017.70
2019-04-16T04:43:29.373Z,1017.66
2019-04-16T04:44:28.869Z,1017.71
2019-04-16T04:45:30.255Z,1017.66
2019-04-16T04:46:31.640Z,1017.68
2019-04-16T04:47:33.025Z,1017.70
2019-04-16T04:48:34.422Z,1017.70
2019-04-16T04:49:35.803Z,1017.73
2019-04-16T04:50:37.192Z,1017.71
2019-04-16T04:51:42.484Z,1017.71
2019-04-16T04:52:39.955Z,1017.72
2019-04-16T04:53:41.349Z,1017.72
2019-04-16T04:54:42.745Z,1017.66
2019-04-16T04:55:44.139Z,1017.72
2019-04-16T04:56:45.524Z,1017.69
2019-04-16T04:57:46.905Z,1017.75
2019-04-16T04:58:48.387Z,1017.72
2019-04-16T04:59:49.657Z,1017.77
2019-04-16T05:00:51.043Z,1017.73
2019-04-16T05:01:52.432Z,1017.72
2019-04-16T05:02:53.824Z,1017.73
2019-04-16T05:03:55.227Z,1017.74
2019-04-16T05:04:56.610Z,1017.72
2019-04-16T05:05:57.998Z,1017.72
2019-04-16T05:06:59.386Z,1017.72
2019-04-16T05:08:00.792Z,1017.71
2019-04-16T05:09:02.158Z,1017.70
2019-04-16T05:10:04.650Z,1017.68
2019-04-16T05:11:04.901Z,1017.71
2019-04-16T05:12:08.040Z,1017.71
2019-04-16T05:13:07.631Z,1017.71
2019-04-16T05:14:09.191Z,1017.70
2019-04-16T05:15:10.585Z,1017.70
2019-04-16T05:16:11.973Z,1017.73
2019-04-16T05:17:13.354Z,1017.72
2019-04-16T05:18:14.749Z,1017.76
2019-04-16T05:19:16.135Z,1017.78
2019-04-16T05:20:17.517Z,1017.79
2019-04-16T05:21:19.499Z,1017.82
2019-04-16T05:22:21.581Z,1017.82
2019-04-16T05:23:24.648Z,1017.83
2019-04-16T05:24:23.195Z,1017.82
2019-04-16T05:25:24.595Z,1017.85
2019-04-16T05:26:25.984Z,1017.80
2019-04-16T05:27:29.281Z,1017.82
2019-04-16T05:28:28.723Z,1017.88
2019-04-16T05:29:30.124Z,1017.84
2019-04-16T05:30:31.526Z,1017.84
2019-04-16T05:31:32.985Z,1017.85
2019-04-16T05:32:34.378Z,1017.86
2019-04-16T05:33:37.443Z,1017.91
2019-04-16T05:34:37.400Z,1017.90
2019-04-16T05:35:41.088Z,1017.89
2019-04-16T05:36:40.249Z,1017.86
2019-04-16T05:37:41.222Z,1017.89
2019-04-16T05:38:42.623Z,1017.90
2019-04-16T05:39:44.021Z,1017.86
2019-04-16T05:40:45.408Z,1017.91
2019-04-16T05:41:46.804Z,1017.91
2019-04-16T05:42:48.186Z,1017.96
2019-04-16T05:43:49.600Z,1017.91
2019-04-16T05:44:51.001Z,1017.88
2019-04-16T05:45:52.404Z,1017.90
2019-04-16T05:46:53.805Z,1017.94
2019-04-16T05:47:56.029Z,1017.91
2019-04-16T05:48:57.420Z,1017.91
2019-04-16T05:49:58.871Z,1017.93
2019-04-16T05:51:00.706Z,1017.90
2019-04-16T05:52:03.817Z,1017.89
2019-04-16T05:53:05.321Z,1017.86
2019-04-16T05:54:04.392Z,1017.87
2019-04-16T05:55:05.785Z,1017.86
2019-04-16T05:56:07.185Z,1017.90
2019-04-16T05:57:08.568Z,1017.92
2019-04-16T05:58:09.956Z,1017.98
2019-04-16T05:59:11.344Z,1018.09
2019-04-16T06:00:12.732Z,1018.11
2019-04-16T06:01:14.450Z,1018.14
2019-04-16T06:02:18.188Z,1018.09
2019-04-16T06:03:20.636Z,1018.22
2019-04-16T06:04:18.206Z,1018.34
2019-04-16T06:05:19.630Z,1018.32
2019-04-16T06:06:20.978Z,1018.30
2019-04-16T06:07:22.359Z,1018.39
2019-04-16T06:08:23.945Z,1018.39
2019-04-16T06:09:25.115Z,1018.38
2019-04-16T06:10:26.504Z,1018.44
2019-04-16T06:11:35.025Z,1018.60
2019-04-16T06:12:32.381Z,1018.46
2019-04-16T06:13:30.636Z,1018.34
2019-04-16T06:14:32.039Z,1018.28
2019-04-16T06:15:35.754Z,1018.27
2019-04-16T06:16:34.775Z,1018.22
2019-04-16T06:17:36.169Z,1018.14
2019-04-16T06:18:38.147Z,1018.12
2019-04-16T06:19:43.726Z,1018.14
2019-04-16T06:20:40.273Z,1018.15
2019-04-16T06:21:41.666Z,1018.16
2019-04-16T06:22:43.055Z,1018.20
2019-04-16T06:23:44.455Z,1018.15
2019-04-16T06:24:45.858Z,1018.19
2019-04-16T06:25:47.262Z,1018.31
2019-04-16T06:26:48.655Z,1018.48
2019-04-16T06:27:50.099Z,1018.52
2019-04-16T06:28:55.170Z,1018.38
2019-04-16T06:29:52.861Z,1018.43
2019-04-16T06:30:54.264Z,1018.46
2019-04-16T06:31:55.678Z,1018.46
2019-04-16T06:32:57.066Z,1018.47
2019-04-16T06:33:58.468Z,1018.49
2019-04-16T06:34:59.865Z,1018.47
2019-04-16T06:36:01.273Z,1018.49
2019-04-16T06:37:02.669Z,1018.45
2019-04-16T06:38:04.071Z,1018.51
2019-04-16T06:39:05.466Z,1018.55
2019-04-16T06:40:06.882Z,1018.54
2019-04-16T06:41:08.279Z,1018.50
2019-04-16T06:42:09.687Z,1018.52
2019-04-16T06:43:11.091Z,1018.63
2019-04-16T06:44:12.494Z,1018.59
2019-04-16T06:45:13.904Z,1018.71
2019-04-16T06:46:15.318Z,1018.75
2019-04-16T06:47:16.730Z,1018.71
2019-04-16T06:48:18.129Z,1018.67
2019-04-16T06:49:19.539Z,1018.65
2019-04-16T06:50:31.349Z,1018.71
2019-04-16T06:51:22.325Z,1018.69
2019-04-16T06:52:23.740Z,1018.69
2019-04-16T06:53:25.256Z,1018.75
2019-04-16T06:54:31.285Z,1018.76
2019-04-16T06:55:28.009Z,1018.78
2019-04-16T06:56:29.264Z,1018.79
2019-04-16T06:57:30.682Z,1018.81
2019-04-16T06:58:49.714Z,1018.84
2019-04-16T06:59:33.466Z,1018.85
2019-04-16T07:00:35.288Z,1018.82
2019-04-16T07:01:37.445Z,1018.93
2019-04-16T07:02:40.690Z,1019.02
2019-04-16T07:03:38.992Z,1019.48
2019-04-16T07:04:40.410Z,1020.27
2019-04-16T07:05:41.819Z,1020.42
2019-04-16T07:06:43.884Z,1020.43
2019-04-16T07:07:46.836Z,1020.43
2019-04-16T07:08:49.787Z,1020.43
2019-04-16T07:09:47.357Z,1020.52
2019-04-16T07:10:48.791Z,1020.60
2019-04-16T07:11:54.604Z,1020.65
2019-04-16T07:12:51.607Z,1020.68
2019-04-16T07:13:52.979Z,1020.68
2019-04-16T07:14:54.397Z,1020.69
2019-04-16T07:15:56.855Z,1020.72
2019-04-16T07:16:59.913Z,1020.72
2019-04-16T07:17:58.633Z,1020.81
2019-04-16T07:19:00.070Z,1020.81
2019-04-16T07:20:04.457Z,1020.87
2019-04-16T07:21:02.926Z,1020.95
2019-04-16T07:22:04.360Z,1020.98
2019-04-16T07:23:05.795Z,1021.06
2019-04-16T07:24:07.290Z,1020.94
2019-04-16T07:25:08.677Z,1020.84
2019-04-16T07:26:13.495Z,1019.96
2019-04-16T07:27:11.427Z,1019.21
2019-04-16T07:28:12.782Z,1019.19
2019-04-16T07:29:14.186Z,1019.30
2019-04-16T07:30:19.348Z,1019.24
2019-04-16T07:31:31.773Z,1019.41
2019-04-16T07:32:18.291Z,1019.25
2019-04-16T07:33:19.691Z,1019.62
2019-04-16T07:34:21.110Z,1020.10
2019-04-16T07:35:22.534Z,1019.89
2019-04-16T07:36:24.260Z,1019.53
2019-04-16T07:37:25.346Z,1019.53
2019-04-16T07:38:26.772Z,1019.57
2019-04-16T07:39:29.546Z,1019.54
2019-04-16T07:40:29.762Z,1019.61
2019-04-16T07:41:31.196Z,1019.98
2019-04-16T07:42:32.609Z,1020.29
2019-04-16T07:43:34.031Z,1022.39
2019-04-16T07:44:36.503Z,1022.10
2019-04-16T07:45:36.827Z,1021.69
2019-04-16T07:46:38.239Z,1021.51
2019-04-16T07:47:39.647Z,1021.79
2019-04-16T07:48:41.078Z,1021.59
2019-04-16T07:49:42.542Z,1021.83
2019-04-16T07:50:43.957Z,1021.78
2019-04-16T07:51:45.368Z,1021.45
2019-04-16T07:52:46.782Z,1021.25
2019-04-16T07:53:48.190Z,1019.63
2019-04-16T07:54:49.655Z,1020.83
2019-04-16T07:55:51.077Z,1020.67
2019-04-16T07:56:52.499Z,1022.03
2019-04-16T07:57:53.920Z,1022.25
2019-04-16T07:59:00.046Z,1021.56
2019-04-16T07:59:56.920Z,1020.28
2019-04-16T08:00:58.086Z,1019.77
2019-04-16T08:01:59.498Z,1021.03
2019-04-16T08:03:00.911Z,1020.68
2019-04-16T08:04:03.159Z,1019.95
2019-04-16T08:05:07.463Z,1021.44
2019-04-16T08:06:05.090Z,1020.05
2019-04-16T08:07:06.505Z,1020.26
2019-04-16T08:08:08.188Z,1020.02
2019-04-16T08:09:09.298Z,1020.90
2019-04-16T08:10:10.713Z,1020.69
2019-04-16T08:11:12.120Z,1020.64
2019-04-16T08:12:29.340Z,1020.48
2019-04-16T08:13:14.908Z,1020.40
2019-04-16T08:14:16.330Z,1020.24
2019-04-16T08:15:17.733Z,1020.48
2019-04-16T08:16:19.230Z,1020.41
2019-04-16T08:17:20.525Z,1020.35
2019-04-16T08:18:21.930Z,1020.43
2019-04-16T08:19:36.123Z,1020.36
2019-04-16T08:20:24.736Z,1020.47
2019-04-16T08:21:26.155Z,1020.46
2019-04-16T08:22:27.633Z,1020.45
2019-04-16T08:23:28.963Z,1020.43
2019-04-16T08:24:30.374Z,1020.41
2019-04-16T08:25:33.979Z,1020.49
2019-04-16T08:26:33.181Z,1020.55
2019-04-16T08:27:34.598Z,1020.55
2019-04-16T08:28:36.027Z,1020.63
2019-04-16T08:29:37.514Z,1020.86
2019-04-16T08:30:39.448Z,1021.39
2019-04-16T08:31:40.784Z,1022.00
2019-04-16T08:32:41.691Z,1023.03
2019-04-16T08:33:43.105Z,1023.71
2019-04-16T08:34:44.519Z,1023.97
2019-04-16T08:35:45.938Z,1024.32
2019-04-16T08:36:47.361Z,1024.23
2019-04-16T08:37:49.543Z,1024.15
2019-04-16T08:38:50.153Z,1024.32
2019-04-16T08:39:51.578Z,1024.20
2019-04-16T08:40:52.992Z,1024.15
2019-04-16T08:41:54.409Z,1024.15
2019-04-16T08:42:57.522Z,1024.43
2019-04-16T08:43:59.801Z,1024.89
2019-04-16T08:44:58.654Z,1025.13
2019-04-16T08:45:59.962Z,1025.30
2019-04-16T08:47:01.396Z,1025.28
2019-04-16T08:48:02.809Z,1025.78
2019-04-16T08:49:04.226Z,1026.47
2019-04-16T08:50:05.633Z,1027.09
2019-04-16T08:51:07.065Z,1026.95
2019-04-16T08:52:10.219Z,1026.48
2019-04-16T08:53:13.504Z,1018.30
2019-04-16T08:54:11.388Z,1018.48
2019-04-16T08:55:12.612Z,1018.68
2019-04-16T08:56:14.026Z,1018.84
2019-04-16T08:57:15.444Z,1019.15
2019-04-16T08:58:16.860Z,1020.27
2019-04-16T08:59:18.270Z,1024.24
2019-04-16T09:00:19.692Z,1027.10
2019-04-16T09:01:23.574Z,1027.22
2019-04-16T09:02:23.555Z,1027.82
2019-04-16T09:03:26.925Z,1028.79
2019-04-16T09:04:25.255Z,1029.89
2019-04-16T09:05:26.668Z,1029.61
2019-04-16T09:06:28.079Z,1030.01
2019-04-16T09:07:29.486Z,1030.71
2019-04-16T09:08:30.897Z,1029.66
2019-04-16T09:09:32.311Z,1030.32
2019-04-16T09:10:33.723Z,1031.13
2019-04-16T09:11:35.563Z,1018.26
2019-04-16T09:12:40.760Z,1018.68
2019-04-16T09:13:40.908Z,1018.23
2019-04-16T09:14:39.244Z,1018.71
2019-04-16T09:15:40.642Z,1018.60
2019-04-16T09:16:43.575Z,1018.54
2019-04-16T09:17:43.455Z,1018.55
2019-04-16T09:18:44.852Z,1018.60
2019-04-16T09:19:46.249Z,1018.57
2019-04-16T09:20:47.672Z,1018.63
2019-04-16T09:21:49.086Z,1018.54
2019-04-16T09:22:53.625Z,1018.58
2019-04-16T09:23:51.866Z,1018.59
2019-04-16T09:24:53.263Z,1018.59
2019-04-16T09:25:54.673Z,1018.61
2019-04-16T09:26:56.434Z,1018.60
2019-04-16T09:28:00.629Z,1018.59
2019-04-16T09:29:01.496Z,1018.56
2019-04-16T09:30:00.347Z,1018.53
2019-04-16T09:31:01.537Z,1018.49
2019-04-16T09:32:02.939Z,1018.55
2019-04-16T09:33:04.354Z,1018.51
2019-04-16T09:34:06.594Z,1018.58
2019-04-16T09:35:09.771Z,1018.60
2019-04-16T09:36:08.494Z,1032.63
2019-04-16T09:37:09.899Z,1033.61
2019-04-16T09:38:13.095Z,1034.26
2019-04-16T09:39:12.664Z,1035.50
2019-04-16T09:40:17.786Z,1036.17
2019-04-16T09:41:15.704Z,1037.16
2019-04-16T09:42:16.814Z,1035.86
2019-04-16T09:43:18.588Z,1034.89
2019-04-16T09:44:19.600Z,1035.90
2019-04-16T09:45:21.237Z,1036.46
2019-04-16T09:46:48.037Z,1037.03
2019-04-16T09:47:23.768Z,1036.26
2019-04-16T09:48:25.162Z,1035.79
2019-04-16T09:49:26.572Z,1037.16
2019-04-16T09:50:27.978Z,1036.18
2019-04-16T09:51:29.384Z,1034.56
2019-04-16T09:52:30.798Z,1033.80
2019-04-16T09:53:34.208Z,1032.78
2019-04-16T09:54:33.626Z,1032.06
2019-04-16T09:55:35.053Z,1030.21
2019-04-16T09:56:36.470Z,1029.30
2019-04-16T09:57:37.876Z,1029.41
2019-04-16T09:58:42.421Z,1028.36
2019-04-16T09:59:40.692Z,1029.01
2019-04-16T10:00:42.106Z,1031.94
2019-04-16T10:01:43.533Z,1030.34
2019-04-16T10:02:44.964Z,1027.67
2019-04-16T10:03:46.382Z,1026.98
2019-04-16T10:04:47.807Z,1026.59
2019-04-16T10:05:49.222Z,1025.64
2019-04-16T10:06:50.669Z,1026.08
2019-04-16T10:07:52.078Z,1026.50
2019-04-16T10:08:56.468Z,1025.97
2019-04-16T10:09:55.313Z,1025.62
2019-04-16T10:10:58.119Z,1025.63
2019-04-16T10:11:57.657Z,1025.85
2019-04-16T10:12:59.050Z,1025.69
2019-04-16T10:14:00.464Z,1025.09
2019-04-16T10:15:01.885Z,1024.20
2019-04-16T10:16:03.344Z,1023.61
2019-04-16T10:17:04.752Z,1023.49
2019-04-16T10:18:06.201Z,1023.57
2019-04-16T10:19:08.440Z,1023.62
2019-04-16T10:20:08.970Z,1023.17
2019-04-16T10:21:10.550Z,1022.83
2019-04-16T10:22:11.966Z,1022.66
2019-04-16T10:23:13.391Z,1022.53
2019-04-16T10:24:14.811Z,1022.58
2019-04-16T10:25:16.216Z,1023.09
2019-04-16T10:26:17.637Z,1023.67
2019-04-16T10:27:19.132Z,1018.38
2019-04-16T10:28:20.540Z,1020.65
2019-04-16T10:29:21.974Z,1022.16
2019-04-16T10:30:23.663Z,1021.43
2019-04-16T10:31:24.745Z,1019.54
2019-04-16T10:32:26.156Z,1018.54
2019-04-16T10:33:27.590Z,1018.45
2019-04-16T10:34:29.017Z,1018.36
2019-04-16T10:35:30.417Z,1018.37
2019-04-16T10:36:36.704Z,1018.41
2019-04-16T10:37:33.229Z,1018.29
2019-04-16T10:38:34.712Z,1018.31
2019-04-16T10:39:36.097Z,1018.28
2019-04-16T10:40:37.536Z,1018.05
2019-04-16T10:41:38.953Z,1018.13
2019-04-16T10:42:40.397Z,1018.18
2019-04-16T10:43:44.808Z,1018.61
2019-04-16T10:44:43.257Z,1019.40
2019-04-16T10:45:44.590Z,1019.64
2019-04-16T10:46:45.985Z,1019.67
2019-04-16T10:47:47.411Z,1019.60
2019-04-16T10:48:48.828Z,1019.56
2019-04-16T10:49:50.238Z,1019.51
2019-04-16T10:50:51.654Z,1019.52
2019-04-16T10:51:53.057Z,1019.49
2019-04-16T10:52:55.877Z,1019.34
2019-04-16T10:53:55.928Z,1019.40
2019-04-16T10:54:57.240Z,1019.41
2019-04-16T10:55:58.687Z,1019.25
2019-04-16T10:57:00.046Z,1019.18
2019-04-16T10:58:01.486Z,1019.10
2019-04-16T10:59:02.897Z,1019.18
2019-04-16T11:00:04.334Z,1019.12
2019-04-16T11:01:05.715Z,1019.00
2019-04-16T11:02:09.679Z,1019.03
2019-04-16T11:03:08.510Z,1019.01
2019-04-16T11:04:10.014Z,1018.97
2019-04-16T11:05:11.302Z,1018.83
2019-04-16T11:06:12.706Z,1018.83
2019-04-16T11:07:14.149Z,1018.77
2019-04-16T11:08:15.577Z,1018.76
2019-04-16T11:09:16.999Z,1018.69
2019-04-16T11:10:18.411Z,1018.61
2019-04-16T11:11:19.809Z,1018.58
2019-04-16T11:12:21.219Z,1018.55
2019-04-16T11:13:22.661Z,1018.63
2019-04-16T11:14:24.071Z,1018.67
2019-04-16T11:15:25.513Z,1018.67
2019-04-16T11:16:27.003Z,1018.63
2019-04-16T11:17:28.281Z,1018.55
2019-04-16T11:18:29.693Z,1018.52
2019-04-16T11:19:31.107Z,1018.45
2019-04-16T11:20:32.510Z,1018.36
2019-04-16T11:21:33.920Z,1018.42
2019-04-16T11:22:35.331Z,1018.26
2019-04-16T11:23:36.743Z,1018.30
2019-04-16T11:24:38.162Z,1018.28
2019-04-16T11:25:39.589Z,1018.23
2019-04-16T11:26:44.202Z,1018.26
2019-04-16T11:27:42.431Z,1018.18
2019-04-16T11:28:43.798Z,1018.18
2019-04-16T11:29:45.244Z,1018.16
2019-04-16T11:30:48.730Z,1018.05
2019-04-16T11:31:48.026Z,1017.94
2019-04-16T11:32:49.407Z,1017.92
2019-04-16T11:33:50.828Z,1017.90
2019-04-16T11:34:52.268Z,1017.84
2019-04-16T11:35:53.776Z,1017.82
2019-04-16T11:36:58.186Z,1017.76
2019-04-16T11:37:56.401Z,1017.69
2019-04-16T11:38:57.821Z,1017.64
2019-04-16T11:39:59.246Z,1017.65
2019-04-16T11:41:00.643Z,1017.60
2019-04-16T11:42:02.094Z,1017.74
2019-04-16T11:43:03.491Z,1017.69
2019-04-16T11:44:14.767Z,1017.82
2019-04-16T11:45:06.258Z,1017.71
2019-04-16T11:46:07.672Z,1017.72
2019-04-16T11:47:09.079Z,1017.66
2019-04-16T11:48:10.481Z,1017.60
2019-04-16T11:49:12.138Z,1017.60
2019-04-16T11:50:13.410Z,1017.65
2019-04-16T11:51:14.648Z,1017.73
2019-04-16T11:52:16.061Z,1017.66
2019-04-16T11:53:17.453Z,1017.73
2019-04-16T11:54:18.884Z,1017.66
2019-04-16T11:55:20.294Z,1017.61
2019-04-16T11:56:22.665Z,1017.66
2019-04-16T11:57:23.052Z,1017.73
2019-04-16T11:58:24.458Z,1017.60
2019-04-16T11:59:26.499Z,1017.57
2019-04-16T12:00:27.919Z,1017.58
2019-04-16T12:01:29.331Z,1017.58
2019-04-16T12:02:30.707Z,1017.66
2019-04-16T12:03:34.971Z,1017.60
2019-04-16T12:04:33.505Z,1017.69
2019-04-16T12:05:34.899Z,1017.53
2019-04-16T12:06:36.327Z,1017.54
2019-04-16T12:07:37.712Z,1017.60
2019-04-16T12:08:39.163Z,1017.60
2019-04-16T12:09:40.577Z,1017.48
2019-04-16T12:10:41.974Z,1017.55
2019-04-16T12:11:43.373Z,1017.60
2019-04-16T12:12:44.794Z,1017.43
2019-04-16T12:13:46.238Z,1017.46
2019-04-16T12:14:47.646Z,1017.46
2019-04-16T12:15:49.043Z,1017.47
2019-04-16T12:16:50.461Z,1017.67
2019-04-16T12:17:51.794Z,1017.64
2019-04-16T12:18:53.232Z,1017.59
2019-04-16T12:19:54.729Z,1017.60
2019-04-16T12:20:55.988Z,1017.50
2019-04-16T12:21:57.400Z,1017.49